createdAt,value
2023-06-08T00:00:31.479Z,96062.63
2023-06-08T00:02:59.008Z,96067.38
2023-06-08T00:05:27.104Z,96072.50
2023-06-08T00:07:57.854Z,96064.19
2023-06-08T00:10:24.763Z,96058.66
2023-06-08T00:12:53.252Z,96063.41
2023-06-08T00:15:20.778Z,96058.22
2023-06-08T00:17:48.377Z,96067.34
2023-06-08T00:20:15.197Z,96058.59
2023-06-08T00:22:44.474Z,96060.94
2023-06-08T00:25:11.653Z,96056.19
2023-06-08T00:27:38.421Z,96053.03
2023-06-08T00:30:06.147Z,96057.81
2023-06-08T00:32:33.047Z,96057.38
2023-06-08T00:34:59.826Z,96052.63
2023-06-08T00:37:26.625Z,96052.22
2023-06-08T00:39:53.379Z,96049.44
2023-06-08T00:42:20.121Z,96052.59
2023-06-08T00:44:46.867Z,96052.19
2023-06-08T00:47:15.883Z,96052.16
2023-06-08T00:49:46.355Z,96046.22
2023-06-08T00:52:13.880Z,96050.56
2023-06-08T00:54:40.793Z,96048.56
2023-06-08T00:57:07.728Z,96052.91
2023-06-08T00:59:35.279Z,96043.81
2023-06-08T01:02:05.558Z,96043.84
2023-06-08T01:04:32.994Z,96041.84
2023-06-08T01:07:16.026Z,96035.47
2023-06-08T01:10:02.405Z,96037.84
2023-06-08T01:12:57.160Z,96045.78
2023-06-08T01:15:32.118Z,96037.44
2023-06-08T01:18:06.074Z,96043.31
2023-06-08T01:20:43.150Z,96028.28
2023-06-08T01:23:27.450Z,96035.38
2023-06-08T01:25:57.463Z,96039.34
2023-06-08T01:28:26.246Z,96039.34
2023-06-08T01:30:53.637Z,96032.19
2023-06-08T01:33:23.256Z,96036.19
2023-06-08T01:36:14.469Z,96038.94
2023-06-08T01:39:00.365Z,96041.69
2023-06-08T01:41:33.589Z,96032.94
2023-06-08T01:44:01.717Z,96024.19
2023-06-08T01:46:30.458Z,96024.56
2023-06-08T01:48:59.746Z,96026.53
2023-06-08T01:51:28.388Z,96026.56
2023-06-08T01:54:05.986Z,96029.31
2023-06-08T01:56:34.184Z,96032.06
2023-06-08T01:59:01.359Z,96033.66
2023-06-08T02:01:28.228Z,96024.50
2023-06-08T02:03:55.165Z,96029.63
2023-06-08T02:06:21.892Z,96023.31
2023-06-08T02:08:48.887Z,96030.00
2023-06-08T02:11:15.754Z,96033.53
2023-06-08T02:13:44.211Z,96020.84
2023-06-08T02:16:12.804Z,96022.38
2023-06-08T02:18:43.078Z,96024.75
2023-06-08T02:21:11.369Z,96028.38
2023-06-08T02:23:38.781Z,96026.75
2023-06-08T02:26:07.451Z,96023.94
2023-06-08T02:28:35.633Z,96024.75
2023-06-08T02:31:07.097Z,96036.16
2023-06-08T02:33:35.136Z,96025.88
2023-06-08T02:36:02.076Z,96019.91
2023-06-08T02:38:31.566Z,96025.88
2023-06-08T02:40:58.446Z,96015.59
2023-06-08T02:43:25.562Z,96024.72
2023-06-08T02:45:52.327Z,96014.41
2023-06-08T02:48:20.766Z,96018.78
2023-06-08T02:50:47.667Z,96014.84
2023-06-08T02:53:14.592Z,96005.69
2023-06-08T02:55:41.381Z,96017.91
2023-06-08T02:58:15.616Z,96013.16
2023-06-08T03:00:42.391Z,96018.25
2023-06-08T03:03:22.772Z,96014.69
2023-06-08T03:05:51.913Z,96010.72
2023-06-08T03:08:18.872Z,96015.03
2023-06-08T03:10:46.070Z,96010.69
2023-06-08T03:13:14.556Z,96015.03
2023-06-08T03:15:42.519Z,96011.50
2023-06-08T03:18:10.732Z,96020.56
2023-06-08T03:20:38.843Z,96020.19
2023-06-08T03:23:11.600Z,96022.94
2023-06-08T03:25:40.755Z,96020.59
2023-06-08T03:28:07.562Z,96028.13
2023-06-08T03:30:34.270Z,96028.13
2023-06-08T03:33:07.134Z,96032.09
2023-06-08T03:35:50.149Z,96027.06
2023-06-08T03:38:22.331Z,96019.91
2023-06-08T03:40:50.906Z,96019.91
2023-06-08T03:43:19.942Z,96031.81
2023-06-08T03:45:47.926Z,96032.63
2023-06-08T03:48:14.721Z,96023.97
2023-06-08T03:50:45.230Z,96027.22
2023-06-08T03:53:13.381Z,96028.84
2023-06-08T03:55:40.221Z,96027.34
2023-06-08T03:58:07.613Z,96031.31
2023-06-08T04:00:34.549Z,96028.16
2023-06-08T04:03:02.135Z,96027.38
2023-06-08T04:05:29.220Z,96026.63
2023-06-08T04:07:56.679Z,96021.13
2023-06-08T04:10:24.551Z,96032.19
2023-06-08T04:12:52.451Z,96025.88
2023-06-08T04:15:19.327Z,96025.13
2023-06-08T04:17:48.269Z,96022.78
2023-06-08T04:20:19.129Z,96024.78
2023-06-08T04:22:46.932Z,96019.31
2023-06-08T04:25:15.143Z,96029.97
2023-06-08T04:27:43.521Z,96030.81
2023-06-08T04:30:11.781Z,96041.13
2023-06-08T04:32:39.092Z,96037.56
2023-06-08T04:35:06.801Z,96046.66
2023-06-08T04:37:36.348Z,96047.09
2023-06-08T04:40:05.455Z,96047.13
2023-06-08T04:42:38.424Z,96044.34
2023-06-08T04:45:09.216Z,96041.19
2023-06-08T04:47:37.323Z,96037.25
2023-06-08T04:50:04.791Z,96046.38
2023-06-08T04:52:38.596Z,96050.34
2023-06-08T04:55:06.166Z,96046.00
2023-06-08T04:57:33.539Z,96040.09
2023-06-08T05:00:00.536Z,96048.44
2023-06-08T05:02:27.405Z,96053.97
2023-06-08T05:04:54.679Z,96040.56
2023-06-08T05:07:21.466Z,96041.34
2023-06-08T05:09:48.250Z,96036.59
2023-06-08T05:12:15.075Z,96039.78
2023-06-08T05:14:42.640Z,96037.41
2023-06-08T05:17:10.071Z,96045.75
2023-06-08T05:19:37.001Z,96041.81
2023-06-08T05:22:03.894Z,96043.84
2023-06-08T05:24:30.861Z,96047.00
2023-06-08T05:26:57.642Z,96040.25
2023-06-08T05:29:24.504Z,96053.75
2023-06-08T05:31:51.394Z,96055.34
2023-06-08T05:34:19.212Z,96049.78
2023-06-08T05:36:45.974Z,96051.78
2023-06-08T05:39:12.611Z,96056.53
2023-06-08T05:41:40.274Z,96050.56
2023-06-08T05:44:07.045Z,96047.78
2023-06-08T05:46:33.810Z,96048.94
2023-06-08T05:49:00.771Z,96039.00
2023-06-08T05:51:27.508Z,96038.63
2023-06-08T05:53:54.195Z,96039.41
2023-06-08T05:56:20.961Z,96037.41
2023-06-08T05:58:49.804Z,96043.00
2023-06-08T06:01:20.438Z,96033.41
2023-06-08T06:03:48.427Z,96033.78
2023-06-08T06:06:15.303Z,96036.91
2023-06-08T06:08:44.502Z,96031.28
2023-06-08T06:11:11.691Z,96040.38
2023-06-08T06:13:38.375Z,96035.53
2023-06-08T06:16:05.270Z,96036.22
2023-06-08T06:18:33.511Z,96036.16
2023-06-08T06:21:00.244Z,96038.84
2023-06-08T06:23:27.130Z,96041.09
2023-06-08T06:25:54.145Z,96043.75
2023-06-08T06:28:21.102Z,96043.69
2023-06-08T06:30:47.900Z,96052.13
2023-06-08T06:33:14.658Z,96044.44
2023-06-08T06:35:41.510Z,96048.69
2023-06-08T06:38:08.237Z,96041.41
2023-06-08T06:40:34.901Z,96039.34
2023-06-08T06:43:01.672Z,96039.59
2023-06-08T06:45:39.317Z,96034.16
2023-06-08T06:48:06.317Z,96033.22
2023-06-08T06:50:33.295Z,96030.84
2023-06-08T06:53:00.146Z,96038.31
2023-06-08T06:55:26.922Z,96033.78
2023-06-08T06:57:53.781Z,96031.22
2023-06-08T07:00:21.022Z,96042.38
2023-06-08T07:02:48.659Z,96042.09
2023-06-08T07:05:15.572Z,96046.22
2023-06-08T07:07:42.277Z,96044.41
2023-06-08T07:10:09.547Z,96043.34
2023-06-08T07:12:36.577Z,96043.84
2023-06-08T07:15:03.541Z,96041.50
2023-06-08T07:17:30.528Z,96041.75
2023-06-08T07:19:58.955Z,96046.09
2023-06-08T07:22:55.266Z,96038.47
2023-06-08T07:25:53.546Z,96042.03
2023-06-08T07:28:04.110Z,96039.28
2023-06-08T07:30:36.228Z,96037.69
2023-06-08T07:33:04.575Z,96040.25
2023-06-08T07:35:31.816Z,96039.53
2023-06-08T07:37:58.793Z,96037.13
2023-06-08T07:40:25.688Z,96040.69
2023-06-08T07:42:52.759Z,96028.50
2023-06-08T07:45:19.459Z,96040.50
2023-06-08T07:47:46.671Z,96038.03
2023-06-08T07:50:14.022Z,96037.47
2023-06-08T07:52:44.916Z,96046.63
2023-06-08T07:55:13.445Z,96038.66
2023-06-08T07:57:40.397Z,96046.56
2023-06-08T08:00:09.165Z,96043.28
2023-06-08T08:02:42.957Z,96044.03
2023-06-08T08:05:10.255Z,96036.59
2023-06-08T08:07:37.659Z,96045.72
2023-06-08T08:10:05.230Z,96041.81
2023-06-08T08:12:32.247Z,96044.03
2023-06-08T08:14:59.999Z,96042.53
2023-06-08T08:17:27.770Z,96040.94
2023-06-08T08:19:54.664Z,96039.72
2023-06-08T08:22:23.374Z,96044.47
2023-06-08T08:24:50.183Z,96034.16
2023-06-08T08:27:18.692Z,96035.75
2023-06-08T08:29:45.777Z,96034.09
2023-06-08T08:32:12.631Z,96038.72
2023-06-08T08:34:39.386Z,96043.78
2023-06-08T08:37:06.453Z,96046.41
2023-06-08T08:39:33.903Z,96045.59
2023-06-08T08:42:07.349Z,96044.78
2023-06-08T08:44:34.666Z,96047.09
2023-06-08T08:47:03.805Z,96048.38
2023-06-08T08:49:37.550Z,96044.63
2023-06-08T08:52:09.734Z,96037.03
2023-06-08T08:54:38.824Z,96047.38
2023-06-08T08:57:07.806Z,96043.78
2023-06-08T08:59:35.839Z,96039.00
2023-06-08T09:02:04.480Z,96042.00
2023-06-08T09:04:31.363Z,96029.09
2023-06-08T09:06:58.244Z,96029.34
2023-06-08T09:09:24.998Z,96031.44
2023-06-08T09:12:03.272Z,96034.00
2023-06-08T09:14:30.650Z,96031.13
2023-06-08T09:17:00.309Z,96025.72
2023-06-08T09:19:29.168Z,96023.16
2023-06-08T09:21:56.404Z,96024.59
2023-06-08T09:24:24.212Z,96017.81
2023-06-08T09:26:57.463Z,96010.81
2023-06-08T09:29:46.846Z,96008.09
2023-06-08T09:32:15.333Z,96003.59
2023-06-08T09:34:57.142Z,96001.25
2023-06-08T09:37:30.258Z,95990.81
2023-06-08T09:39:58.077Z,96002.63
2023-06-08T09:42:42.444Z,96002.63
2023-06-08T09:45:13.797Z,96006.94
2023-06-08T09:47:41.474Z,95995.53
2023-06-08T09:50:09.982Z,95998.03
2023-06-08T09:52:38.424Z,95987.34
2023-06-08T09:55:06.893Z,95996.53
2023-06-08T09:57:38.241Z,95996.00
2023-06-08T10:00:17.215Z,95989.25
2023-06-08T10:02:55.970Z,95986.72
2023-06-08T10:05:23.871Z,95984.78
2023-06-08T10:07:53.880Z,95980.19
2023-06-08T10:10:23.755Z,95981.66
2023-06-08T10:12:52.025Z,95986.94
2023-06-08T10:15:20.470Z,95977.31
2023-06-08T10:17:48.667Z,95984.66
2023-06-08T10:20:18.438Z,95979.38
2023-06-08T10:22:46.863Z,95977.56
2023-06-08T10:25:14.905Z,95976.06
2023-06-08T10:27:53.241Z,95974.69
2023-06-08T10:30:43.380Z,95977.84
2023-06-08T10:33:12.193Z,95967.50
2023-06-08T10:35:43.721Z,95965.41
2023-06-08T10:38:11.555Z,95970.06
2023-06-08T10:40:48.233Z,95963.84
2023-06-08T10:43:45.562Z,95974.16
2023-06-08T10:46:02.179Z,95959.66
2023-06-08T10:48:38.159Z,95964.63
2023-06-08T10:51:11.647Z,95959.16
2023-06-08T10:53:55.666Z,95958.34
2023-06-08T10:56:27.099Z,95956.59
2023-06-08T10:58:54.832Z,95953.72
2023-06-08T11:01:22.833Z,95954.66
2023-06-08T11:03:50.273Z,95945.19
2023-06-08T11:06:17.434Z,95944.84
2023-06-08T11:08:44.369Z,95937.56
2023-06-08T11:11:14.405Z,95933.63
2023-06-08T11:13:41.177Z,95937.22
2023-06-08T11:16:08.061Z,95924.19
2023-06-08T11:18:35.636Z,95924.38
2023-06-08T11:21:03.426Z,95928.66
2023-06-08T11:23:35.364Z,95912.63
2023-06-08T11:26:02.680Z,95919.03
2023-06-08T11:28:29.532Z,95918.16
2023-06-08T11:30:56.413Z,95916.03
2023-06-08T11:33:23.190Z,95912.34
2023-06-08T11:35:54.388Z,95912.41
2023-06-08T11:38:25.122Z,95903.00
2023-06-08T11:40:52.453Z,95909.66
2023-06-08T11:43:21.795Z,95897.00
2023-06-08T11:45:48.620Z,95901.88
2023-06-08T11:48:17.582Z,95907.28
2023-06-08T11:50:49.473Z,95903.03
2023-06-08T11:53:24.080Z,95893.41
2023-06-08T11:55:54.086Z,95894.97
2023-06-08T11:58:33.058Z,95896.84
2023-06-08T12:01:12.275Z,95894.47
2023-06-08T12:03:50.565Z,95902.72
2023-06-08T12:06:19.538Z,95894.38
2023-06-08T12:08:46.783Z,95891.03
2023-06-08T12:11:15.336Z,95892.94
2023-06-08T12:13:43.689Z,95888.34
2023-06-08T12:16:11.675Z,95898.44
2023-06-08T12:18:43.642Z,95893.72
2023-06-08T12:21:15.807Z,95893.19
2023-06-08T12:23:44.362Z,95877.28
2023-06-08T12:26:11.383Z,95891.31
2023-06-08T12:28:39.546Z,95886.38
2023-06-08T12:31:06.673Z,95888.72
2023-06-08T12:33:34.521Z,95887.75
2023-06-08T12:36:02.144Z,95882.81
2023-06-08T12:38:29.310Z,95874.03
2023-06-08T12:40:57.804Z,95870.53
2023-06-08T12:43:26.420Z,95873.00
2023-06-08T12:45:53.602Z,95873.47
2023-06-08T12:48:23.891Z,95879.19
2023-06-08T12:50:50.746Z,95872.72
2023-06-08T12:53:17.455Z,95871.00
2023-06-08T12:55:44.410Z,95872.81
2023-06-08T12:58:12.133Z,95875.53
2023-06-08T13:00:39.437Z,95874.28
2023-06-08T13:03:08.816Z,95871.34
2023-06-08T13:05:36.462Z,95872.34
2023-06-08T13:08:07.878Z,95871.88
2023-06-08T13:10:39.390Z,95871.72
2023-06-08T13:13:08.301Z,95864.63
2023-06-08T13:15:36.466Z,95867.69
2023-06-08T13:18:04.719Z,95858.78
2023-06-08T13:20:31.731Z,95857.44
2023-06-08T13:22:58.820Z,95866.91
2023-06-08T13:25:25.915Z,95869.09
2023-06-08T13:27:53.172Z,95865.75
2023-06-08T13:30:19.918Z,95861.69
2023-06-08T13:32:46.900Z,95856.28
2023-06-08T13:35:14.257Z,95864.84
2023-06-08T13:37:41.992Z,95861.69
2023-06-08T13:40:09.823Z,95876.19
2023-06-08T13:42:37.103Z,95865.75
2023-06-08T13:45:04.095Z,95861.25
2023-06-08T13:47:30.841Z,95860.69
2023-06-08T13:49:58.434Z,95866.06
2023-06-08T13:52:25.282Z,95858.09
2023-06-08T13:54:52.030Z,95857.28
2023-06-08T13:57:18.849Z,95861.09
2023-06-08T13:59:45.725Z,95857.50
2023-06-08T14:02:12.605Z,95848.66
2023-06-08T14:04:39.387Z,95865.03
2023-06-08T14:07:06.626Z,95865.94
2023-06-08T14:09:33.503Z,95857.56
2023-06-08T14:12:00.188Z,95853.53
2023-06-08T14:14:26.885Z,95856.13
2023-06-08T14:16:53.973Z,95847.19
2023-06-08T14:19:20.645Z,95839.19
2023-06-08T14:21:47.381Z,95837.75
2023-06-08T14:24:14.319Z,95839.00
2023-06-08T14:26:41.444Z,95832.34
2023-06-08T14:29:09.965Z,95833.25
2023-06-08T14:31:37.014Z,95838.19
2023-06-08T14:34:03.802Z,95832.72
2023-06-08T14:36:30.633Z,95832.25
2023-06-08T14:38:57.589Z,95834.81
2023-06-08T14:41:24.458Z,95834.63
2023-06-08T14:43:52.640Z,95845.06
2023-06-08T14:46:20.328Z,95842.69
2023-06-08T14:48:47.294Z,95844.81
2023-06-08T14:51:32.417Z,95856.59
2023-06-08T14:54:04.013Z,95841.56
2023-06-08T14:56:30.830Z,95837.75
2023-06-08T14:58:57.675Z,95836.41
2023-06-08T15:01:24.522Z,95837.84
2023-06-08T15:03:51.446Z,95838.88
2023-06-08T15:06:18.185Z,95837.31
2023-06-08T15:08:45.237Z,95834.41
2023-06-08T15:11:18.472Z,95834.41
2023-06-08T15:13:46.496Z,95839.88
2023-06-08T15:16:13.247Z,95834.69
2023-06-08T15:18:40.151Z,95831.88
2023-06-08T15:21:07.087Z,95831.44
2023-06-08T15:23:34.042Z,95836.50
2023-06-08T15:26:00.819Z,95831.16
2023-06-08T15:28:27.912Z,95829.78
2023-06-08T15:30:54.927Z,95831.56
2023-06-08T15:33:21.634Z,95836.06
2023-06-08T15:35:48.820Z,95826.28
2023-06-08T15:38:17.513Z,95829.19
2023-06-08T15:40:47.441Z,95830.66
2023-06-08T15:43:14.262Z,95826.50
2023-06-08T15:45:41.485Z,95841.13
2023-06-08T15:48:08.306Z,95831.97
2023-06-08T15:50:35.239Z,95840.19
2023-06-08T15:53:01.903Z,95845.06
2023-06-08T15:55:28.831Z,95832.91
2023-06-08T15:57:55.681Z,95824.94
2023-06-08T16:00:22.643Z,95815.72
2023-06-08T16:02:49.902Z,95813.16
2023-06-08T16:05:16.806Z,95813.59
2023-06-08T16:07:43.594Z,95814.22
2023-06-08T16:10:10.878Z,95817.56
2023-06-08T16:12:37.802Z,95811.63
2023-06-08T16:15:06.259Z,95820.28
2023-06-08T16:17:33.192Z,95819.16
2023-06-08T16:20:00.261Z,95815.13
2023-06-08T16:22:27.066Z,95811.72
2023-06-08T16:24:53.834Z,95812.34
2023-06-08T16:27:21.199Z,95806.88
2023-06-08T16:29:48.502Z,95804.50
2023-06-08T16:32:16.071Z,95791.53
2023-06-08T16:34:42.959Z,95804.84
2023-06-08T16:37:09.745Z,95791.38
2023-06-08T16:39:36.563Z,95797.78
2023-06-08T16:42:03.698Z,95793.75
2023-06-08T16:44:30.408Z,95790.88
2023-06-08T16:46:57.432Z,95788.78
2023-06-08T16:49:24.183Z,95787.91
2023-06-08T16:51:53.112Z,95789.13
2023-06-08T16:54:20.150Z,95791.75
2023-06-08T16:56:46.945Z,95789.84
2023-06-08T16:59:15.339Z,95789.41
2023-06-08T17:01:42.680Z,95781.09
2023-06-08T17:04:09.842Z,95774.09
2023-06-08T17:06:37.266Z,95768.16
2023-06-08T17:09:04.254Z,95768.16
2023-06-08T17:11:31.587Z,95773.94
2023-06-08T17:13:59.815Z,95769.34
2023-06-08T17:16:28.094Z,95774.06
2023-06-08T17:18:55.362Z,95773.19
2023-06-08T17:21:22.289Z,95774.06
2023-06-08T17:23:49.956Z,95783.94
2023-06-08T17:26:17.993Z,95785.25
2023-06-08T17:28:45.008Z,95790.50
2023-06-08T17:31:12.373Z,95802.56
2023-06-08T17:33:39.178Z,95799.06
2023-06-08T17:36:08.555Z,95800.53
2023-06-08T17:38:35.411Z,95805.22
2023-06-08T17:41:02.170Z,95802.94
2023-06-08T17:43:31.010Z,95809.41
2023-06-08T17:45:58.594Z,95811.59
2023-06-08T17:48:25.461Z,95819.00
2023-06-08T17:50:52.249Z,95811.41
2023-06-08T17:53:19.044Z,95808.91
2023-06-08T17:55:45.830Z,95806.38
2023-06-08T17:58:12.612Z,95811.91
2023-06-08T18:00:39.380Z,95801.25
2023-06-08T18:03:08.069Z,95795.94
2023-06-08T18:05:35.593Z,95800.66
2023-06-08T18:08:02.370Z,95804.94
2023-06-08T18:10:29.341Z,95801.19
2023-06-08T18:12:56.176Z,95797.31
2023-06-08T18:15:23.420Z,95786.34
2023-06-08T18:17:50.475Z,95794.03
2023-06-08T18:20:19.362Z,95795.72
2023-06-08T18:22:46.345Z,95797.84
2023-06-08T18:25:13.571Z,95801.97
2023-06-08T18:27:41.866Z,95800.91
2023-06-08T18:30:09.696Z,95799.06
2023-06-08T18:32:38.581Z,95804.78
2023-06-08T18:35:06.228Z,95802.47
2023-06-08T18:37:33.557Z,95797.72
2023-06-08T18:40:00.422Z,95793.38
2023-06-08T18:42:27.221Z,95793.00
2023-06-08T18:44:57.370Z,95795.56
2023-06-08T18:47:26.357Z,95794.88
2023-06-08T18:49:53.419Z,95798.63
2023-06-08T18:52:20.154Z,95811.78
2023-06-08T18:54:47.115Z,95816.19
2023-06-08T18:57:14.448Z,95821.41
2023-06-08T18:59:42.898Z,95828.78
2023-06-08T19:02:10.310Z,95827.97
2023-06-08T19:04:37.264Z,95827.25
2023-06-08T19:07:04.521Z,95830.16
2023-06-08T19:09:31.290Z,95829.84
2023-06-08T19:11:58.170Z,95838.66
2023-06-08T19:14:26.648Z,95840.78
2023-06-08T19:16:54.050Z,95842.88
2023-06-08T19:19:22.398Z,95831.03
2023-06-08T19:21:50.346Z,95838.66
2023-06-08T19:24:17.176Z,95848.59
2023-06-08T19:26:43.969Z,95852.63
2023-06-08T19:29:11.019Z,95855.03
2023-06-08T19:31:38.042Z,95859.88
2023-06-08T19:34:05.084Z,95858.38
2023-06-08T19:36:31.874Z,95858.03
2023-06-08T19:38:59.192Z,95870.38
2023-06-08T19:41:27.459Z,95873.19
2023-06-08T19:43:54.630Z,95876.78
2023-06-08T19:46:22.714Z,95876.47
2023-06-08T19:48:52.619Z,95880.47
2023-06-08T19:51:19.849Z,95877.28
2023-06-08T19:53:46.923Z,95885.66
2023-06-08T19:56:15.556Z,95877.72
2023-06-08T19:58:42.248Z,95882.13
2023-06-08T20:01:09.171Z,95883.34
2023-06-08T20:03:36.286Z,95880.22
2023-06-08T20:06:03.228Z,95887.41
2023-06-08T20:08:30.391Z,95878.66
2023-06-08T20:10:57.511Z,95881.44
2023-06-08T20:13:24.338Z,95885.03
2023-06-08T20:15:51.385Z,95885.84
2023-06-08T20:18:22.982Z,95891.78
2023-06-08T20:20:50.693Z,95894.56
2023-06-08T20:23:17.768Z,95896.94
2023-06-08T20:25:45.810Z,95904.91
2023-06-08T20:28:12.732Z,95906.88
2023-06-08T20:30:39.584Z,95899.31
2023-06-08T20:33:06.782Z,95899.31
2023-06-08T20:35:33.774Z,95901.31
2023-06-08T20:38:01.532Z,95910.84
2023-06-08T20:40:28.387Z,95903.72
2023-06-08T20:42:55.315Z,95911.25
2023-06-08T20:45:22.599Z,95914.06
2023-06-08T20:47:49.735Z,95914.06
2023-06-08T20:50:16.582Z,95907.75
2023-06-08T20:52:43.741Z,95915.28
2023-06-08T20:55:10.732Z,95917.28
2023-06-08T20:57:37.722Z,95908.22
2023-06-08T21:00:09.598Z,95911.38
2023-06-08T21:02:47.395Z,95912.59
2023-06-08T21:05:18.778Z,95921.72
2023-06-08T21:07:47.342Z,95928.88
2023-06-08T21:10:16.315Z,95920.91
2023-06-08T21:12:43.279Z,95922.53
2023-06-08T21:15:10.204Z,95918.56
2023-06-08T21:17:37.988Z,95926.50
2023-06-08T21:20:05.768Z,95922.53
2023-06-08T21:22:32.946Z,95920.19
2023-06-08T21:24:59.738Z,95924.91
2023-06-08T21:27:27.103Z,95928.91
2023-06-08T21:29:54.472Z,95932.47
2023-06-08T21:32:21.532Z,95930.09
2023-06-08T21:34:49.445Z,95930.50
2023-06-08T21:37:16.510Z,95921.78
2023-06-08T21:39:43.607Z,95924.56
2023-06-08T21:42:11.422Z,95928.91
2023-06-08T21:44:39.048Z,95922.16
2023-06-08T21:47:06.390Z,95922.56
2023-06-08T21:49:33.046Z,95932.84
2023-06-08T21:51:59.767Z,95936.00
2023-06-08T21:54:26.526Z,95941.97
2023-06-08T21:56:53.304Z,95945.13
2023-06-08T21:59:21.305Z,95938.75
2023-06-08T22:01:48.731Z,95944.72
2023-06-08T22:04:15.653Z,95940.75
2023-06-08T22:06:44.103Z,95947.06
2023-06-08T22:09:10.977Z,95949.44
2023-06-08T22:11:38.986Z,95952.19
2023-06-08T22:14:07.100Z,95941.91
2023-06-08T22:16:38.665Z,95942.28
2023-06-08T22:19:07.661Z,95937.94
2023-06-08T22:21:37.938Z,95929.97
2023-06-08T22:24:05.187Z,95932.34
2023-06-08T22:26:32.041Z,95930.75
2023-06-08T22:28:58.818Z,95927.97
2023-06-08T22:31:27.690Z,95930.34
2023-06-08T22:33:54.794Z,95926.00
2023-06-08T22:36:24.654Z,95924.81
2023-06-08T22:38:52.052Z,95924.75
2023-06-08T22:41:19.051Z,95925.53
2023-06-08T22:43:45.889Z,95922.69
2023-06-08T22:46:12.668Z,95921.50
2023-06-08T22:48:42.059Z,95924.66
2023-06-08T22:51:12.852Z,95919.94
2023-06-08T22:53:39.770Z,95913.97
2023-06-08T22:56:11.062Z,95908.03
2023-06-08T22:58:38.220Z,95907.22
2023-06-08T23:01:08.843Z,95915.09
2023-06-08T23:03:36.457Z,95911.16
2023-06-08T23:06:03.209Z,95907.19
2023-06-08T23:08:31.393Z,95906.41
2023-06-08T23:10:58.238Z,95911.91
2023-06-08T23:13:27.408Z,95910.69
2023-06-08T23:15:54.657Z,95907.91
2023-06-08T23:18:33.813Z,95911.06
2023-06-08T23:21:01.833Z,95907.06
2023-06-08T23:23:29.432Z,95901.91
2023-06-08T23:25:56.431Z,95889.66
2023-06-08T23:28:23.211Z,95886.47
2023-06-08T23:30:49.955Z,95898.31
2023-06-08T23:33:16.808Z,95891.22
2023-06-08T23:35:44.572Z,95894.38
2023-06-08T23:38:11.694Z,95893.66
2023-06-08T23:40:38.520Z,95891.59
2023-06-08T23:43:05.407Z,95893.56
2023-06-08T23:45:32.461Z,95890.00
2023-06-08T23:48:02.835Z,95887.59
2023-06-08T23:50:29.821Z,95899.78
2023-06-08T23:52:56.823Z,95890.69
2023-06-08T23:55:23.951Z,95898.16
2023-06-08T23:57:51.346Z,95893.00
